Time;durP1;ratioP1;P1;durP2;ratioP2;P2;SDS_P1;SDS_P2;PMS_P1;PMS_P2;Temp;Humidity;BMP_temperature;BMP_pressure;BME280_temperature;BME280_humidity;BME280_pressure;Samples;Min_cycle;Max_cycle;Signal;HPM_P1;HPM_P2
2022/01/27 00:05:27;;;;;;;16.25;7.25;;;5.00;99.90;;;;;;5117779;27;20043;-82
2022/01/27 00:08:10;;;;;;;26.70;10.23;;;5.00;99.90;;;;;;5099978;27;20039;-83
2022/01/27 00:10:53;;;;;;;18.48;8.77;;;5.00;99.90;;;;;;5100389;27;20039;-83
2022/01/27 00:13:24;;;;;;;13.77;6.30;;;5.00;99.90;;;;;;5100576;27;20478;-83
2022/01/27 00:15:58;;;;;;;11.38;5.88;;;5.00;99.90;;;;;;5100407;27;20043;-83
2022/01/27 00:18:24;;;;;;;6.65;3.55;;;5.00;99.90;;;;;;5099815;27;20045;-83
2022/01/27 00:20:50;;;;;;;15.85;7.50;;;5.00;99.90;;;;;;5100251;27;20063;-83
2022/01/27 00:23:16;;;;;;;12.52;6.60;;;5.00;99.90;;;;;;5100055;27;20035;-83
2022/01/27 00:25:42;;;;;;;14.10;7.70;;;5.00;99.90;;;;;;5117009;27;20377;-83
2022/01/27 00:28:08;;;;;;;17.40;7.82;;;5.00;99.90;;;;;;5099849;27;20050;-83
2022/01/27 00:30:38;;;;;;;20.58;8.10;;;5.00;99.90;;;;;;5099880;27;20046;-83
2022/01/27 00:33:04;;;;;;;13.55;7.32;;;5.00;99.90;;;;;;5100020;27;20068;-83
2022/01/27 00:35:33;;;;;;;12.45;6.80;;;5.00;99.90;;;;;;5100101;27;20491;-83
2022/01/27 00:37:59;;;;;;;14.35;7.53;;;5.00;99.90;;;;;;5099430;27;20066;-83
2022/01/27 00:40:25;;;;;;;10.30;5.55;;;5.00;99.90;;;;;;5099836;27;20051;-83
2022/01/27 00:42:51;;;;;;;11.75;6.05;;;5.00;99.90;;;;;;5099986;27;20039;-83
2022/01/27 00:45:17;;;;;;;17.88;8.07;;;5.00;99.90;;;;;;5099781;27;20079;-83
2022/01/27 00:47:43;;;;;;;17.35;8.40;;;5.10;99.90;;;;;;5099232;27;20039;-83
2022/01/27 00:50:09;;;;;;;14.60;7.22;;;5.10;99.90;;;;;;5100028;27;20041;-83
2022/01/27 00:52:45;;;;;;;18.50;7.78;;;5.10;99.90;;;;;;5099569;27;20039;-83
2022/01/27 00:55:12;;;;;;;17.15;8.52;;;5.10;99.90;;;;;;5116482;27;20054;-83
2022/01/27 01:00:09;;;;;;;15.88;6.75;;;5.10;99.90;;;;;;5116646;27;20035;-83
2022/01/27 01:05:29;;;;;;;17.92;6.65;;;5.20;99.90;;;;;;5116603;27;20431;-83
2022/01/27 01:08:01;;;;;;;10.52;6.00;;;5.20;99.90;;;;;;5098820;27;20442;-83
2022/01/27 01:15:39;;;;;;;20.42;9.30;;;5.20;99.90;;;;;;5116435;27;20385;-83
2022/01/27 01:31:32;;;;;;;15.23;7.22;;;5.20;99.90;;;;;;5115708;27;20046;-83
2022/01/27 01:34:15;;;;;;;9.23;4.07;;;5.20;99.90;;;;;;5098930;27;20045;-83
2022/01/27 01:37:03;;;;;;;5.95;4.13;;;5.20;99.90;;;;;;5115532;27;20062;-83
2022/01/27 01:39:33;;;;;;;8.57;5.07;;;5.20;99.90;;;;;;5098792;28;20395;-83
2022/01/27 01:42:00;;;;;;;13.32;5.68;;;5.10;99.90;;;;;;5099088;27;20035;-83
2022/01/27 01:44:27;;;;;;;18.35;6.57;;;5.10;99.90;;;;;;5098601;27;20395;-83
2022/01/27 01:46:54;;;;;;;12.05;5.15;;;5.10;99.90;;;;;;5098332;27;20039;-83
2022/01/27 01:49:22;;;;;;;9.57;4.93;;;5.10;99.90;;;;;;5098740;28;20039;-83
2022/01/27 01:51:49;;;;;;;31.20;3.53;;;5.10;99.90;;;;;;5098716;28;20434;-83
2022/01/27 01:54:15;;;;;;;10.10;4.45;;;5.10;99.90;;;;;;5098632;28;20134;-83
2022/01/27 01:56:43;;;;;;;10.93;6.72;;;5.10;99.90;;;;;;5098344;28;20468;-83
2022/01/27 01:59:09;;;;;;;20.55;7.45;;;5.10;99.90;;;;;;5098696;28;20488;-83
2022/01/27 02:01:36;;;;;;;14.90;8.10;;;5.20;99.90;;;;;;5098535;28;20035;-83
2022/01/27 02:04:07;;;;;;;15.23;8.23;;;5.10;99.90;;;;;;5098534;28;20083;-83
2022/01/27 02:06:41;;;;;;;18.02;7.70;;;5.10;99.90;;;;;;5115209;28;20035;-83
2022/01/27 02:19:55;;;;;;;13.60;6.68;;;5.10;99.90;;;;;;5115187;28;20054;-82
2022/01/27 02:22:21;;;;;;;14.50;7.63;;;5.00;99.90;;;;;;5098433;28;20027;-83
2022/01/27 02:24:47;;;;;;;20.55;7.30;;;5.10;99.90;;;;;;5115848;27;20461;-83
2022/01/27 02:27:15;;;;;;;11.73;5.80;;;5.00;99.90;;;;;;5102052;27;20056;-83
2022/01/27 02:29:41;;;;;;;9.75;5.22;;;5.00;99.90;;;;;;5102351;27;20043;-83
2022/01/27 02:32:07;;;;;;;14.35;5.03;;;4.90;99.90;;;;;;5102458;27;20491;-83
2022/01/27 02:34:33;;;;;;;9.32;2.28;;;4.90;99.90;;;;;;5119331;27;20035;-83
2022/01/27 02:36:59;;;;;;;9.63;4.95;;;4.90;99.90;;;;;;5101877;27;20050;-83
2022/01/27 02:39:26;;;;;;;16.20;3.83;;;4.90;99.90;;;;;;5102064;27;20531;-83
2022/01/27 02:42:00;;;;;;;16.20;7.80;;;4.90;99.90;;;;;;5102425;27;20510;-83
2022/01/27 02:44:38;;;;;;;26.52;4.65;;;5.00;99.90;;;;;;5119102;27;20074;-83
2022/01/27 02:47:04;;;;;;;17.13;6.75;;;5.00;99.90;;;;;;5101819;27;20095;-83
2022/01/27 02:49:29;;;;;;;16.48;7.97;;;5.00;99.90;;;;;;5101942;27;20146;-83
2022/01/27 02:51:55;;;;;;;8.63;5.03;;;5.00;99.90;;;;;;5102182;27;20513;-83
2022/01/27 02:54:21;;;;;;;13.50;7.13;;;5.00;99.90;;;;;;5102197;27;20035;-82
2022/01/27 02:56:47;;;;;;;11.55;5.05;;;5.00;99.90;;;;;;5101587;27;20396;-83
2022/01/27 02:59:14;;;;;;;12.40;6.03;;;5.00;99.90;;;;;;5118641;27;20050;-83
2022/01/27 03:01:40;;;;;;;17.05;6.65;;;5.00;99.90;;;;;;5101586;27;20031;-83
2022/01/27 03:04:06;;;;;;;17.30;8.38;;;5.00;99.90;;;;;;5101621;27;20035;-83
2022/01/27 03:06:32;;;;;;;14.32;7.60;;;5.00;99.90;;;;;;5101263;27;20377;-83
2022/01/27 03:08:57;;;;;;;20.83;7.70;;;5.00;99.90;;;;;;5101518;27;20726;-83
2022/01/27 03:11:51;;;;;;;14.80;6.50;;;5.00;99.90;;;;;;5101619;27;20092;-83
2022/01/27 03:14:20;;;;;;;15.63;8.32;;;5.00;99.90;;;;;;5101738;27;20554;-83
2022/01/27 03:16:45;;;;;;;16.58;7.80;;;5.00;99.90;;;;;;5100994;27;20039;-83
2022/01/27 03:19:11;;;;;;;13.93;7.38;;;5.00;99.90;;;;;;5101309;27;20058;-83
2022/01/27 03:21:37;;;;;;;13.77;4.82;;;5.00;99.90;;;;;;5101198;27;20088;-83
2022/01/27 03:24:03;;;;;;;8.93;4.68;;;5.10;99.90;;;;;;5101232;27;20043;-83
2022/01/27 03:26:29;;;;;;;12.23;5.22;;;5.10;99.90;;;;;;5117763;27;20100;-83
2022/01/27 03:28:56;;;;;;;8.27;4.57;;;5.10;99.90;;;;;;5101356;27;20054;-83
2022/01/27 03:31:21;;;;;;;18.73;8.07;;;5.10;99.90;;;;;;5101156;27;20035;-83
2022/01/27 03:33:47;;;;;;;9.82;6.13;;;5.10;99.90;;;;;;5101027;27;20046;-83
2022/01/27 03:36:13;;;;;;;23.42;8.95;;;5.10;99.90;;;;;;5099658;28;20042;-83
2022/01/27 03:38:40;;;;;;;15.52;7.40;;;5.20;99.90;;;;;;5100630;27;20040;-83
2022/01/27 03:41:07;;;;;;;9.70;4.22;;;5.10;99.90;;;;;;5118104;27;20515;-83
2022/01/27 03:43:35;;;;;;;16.70;7.38;;;5.20;99.90;;;;;;5100896;27;20040;-83
2022/01/27 03:46:01;;;;;;;14.32;5.53;;;5.10;99.90;;;;;;5118048;27;20039;-84
2022/01/27 03:48:27;;;;;;;9.95;5.05;;;5.10;99.90;;;;;;5117770;27;20483;-83
2022/01/27 03:50:52;;;;;;;13.93;7.03;;;5.10;99.90;;;;;;5100845;27;20043;-83
2022/01/27 03:53:18;;;;;;;17.08;6.93;;;5.10;99.90;;;;;;5117879;27;20587;-83
2022/01/27 03:55:44;;;;;;;15.82;7.13;;;5.10;99.90;;;;;;5100839;27;20100;-83
2022/01/27 03:58:09;;;;;;;38.47;6.22;;;5.10;99.90;;;;;;5100240;27;20436;-83
2022/01/27 04:00:35;;;;;;;13.93;7.88;;;5.10;99.90;;;;;;5100907;27;20564;-83
2022/01/27 04:03:03;;;;;;;15.88;7.55;;;5.10;99.90;;;;;;5100640;27;20091;-83
2022/01/27 04:05:35;;;;;;;15.50;6.05;;;5.10;99.90;;;;;;5100668;27;20039;-83
2022/01/27 04:08:01;;;;;;;11.93;6.72;;;5.20;99.90;;;;;;5100261;27;20480;-83
2022/01/27 04:10:26;;;;;;;11.55;5.55;;;5.10;99.90;;;;;;5100396;27;20080;-83
2022/01/27 04:12:52;;;;;;;25.63;9.82;;;5.10;99.90;;;;;;5100437;27;20035;-83
2022/01/27 04:15:18;;;;;;;10.63;4.22;;;5.20;99.90;;;;;;5100323;27;20080;-83
2022/01/27 04:17:43;;;;;;;11.15;5.13;;;5.20;99.90;;;;;;5099953;27;20040;-83
2022/01/27 04:20:09;;;;;;;12.02;5.55;;;5.20;99.90;;;;;;5100406;27;20038;-83
2022/01/27 04:22:35;;;;;;;18.58;8.55;;;5.20;99.90;;;;;;5100100;27;20057;-83
2022/01/27 04:25:00;;;;;;;14.93;7.10;;;5.20;99.90;;;;;;5100480;27;20039;-83
2022/01/27 04:27:31;;;;;;;13.32;6.82;;;5.30;99.90;;;;;;5099626;27;20391;-83
2022/01/27 04:29:56;;;;;;;21.67;10.27;;;5.30;99.90;;;;;;5100023;27;20039;-83
2022/01/27 04:32:28;;;;;;;11.93;5.32;;;5.30;99.90;;;;;;5099803;27;20042;-83
2022/01/27 04:34:59;;;;;;;12.48;5.93;;;5.30;99.90;;;;;;5100025;27;20084;-83
2022/01/27 04:37:26;;;;;;;20.45;8.95;;;5.30;99.90;;;;;;5099709;27;20049;-83
2022/01/27 04:40:15;;;;;;;10.48;5.15;;;5.30;99.90;;;;;;5099585;27;20050;-83
2022/01/27 04:42:52;;;;;;;;;;;5.30;99.90;;;;;;5117032;27;20043;-83
2022/01/27 04:45:21;;;;;;;11.95;6.05;;;5.30;99.90;;;;;;5099711;27;19921;-83
2022/01/27 04:47:51;;;;;;;15.13;8.05;;;5.40;99.90;;;;;;5098949;27;20122;-82
2022/01/27 04:50:16;;;;;;;12.27;6.65;;;5.40;99.90;;;;;;5099704;27;20122;-83
2022/01/27 04:52:45;;;;;;;15.50;6.60;;;5.40;99.90;;;;;;5099802;27;20471;-83
2022/01/27 04:55:15;;;;;;;20.35;9.50;;;5.40;99.90;;;;;;5116563;27;20031;-83
2022/01/27 04:57:43;;;;;;;14.57;8.02;;;5.40;99.90;;;;;;5099064;27;20039;-83
2022/01/27 05:00:12;;;;;;;12.02;5.68;;;5.40;99.90;;;;;;5099337;27;20035;-83
2022/01/27 05:02:54;;;;;;;17.80;7.65;;;5.40;99.90;;;;;;5114652;27;20035;-83
2022/01/27 05:05:21;;;;;;;12.98;7.10;;;5.40;99.90;;;;;;5112243;27;20495;-83
2022/01/27 05:07:55;;;;;;;14.82;5.78;;;5.40;99.90;;;;;;5118554;27;20030;-83
2022/01/27 05:10:23;;;;;;;15.35;8.13;;;5.40;99.90;;;;;;5119074;27;20061;-83
2022/01/27 05:12:52;;;;;;;8.13;4.78;;;5.50;99.90;;;;;;5136199;27;20035;-83
2022/01/27 05:15:18;;;;;;;13.02;4.88;;;5.40;99.90;;;;;;5118947;27;20507;-83
2022/01/27 05:17:44;;;;;;;12.52;6.10;;;5.40;99.90;;;;;;5109324;27;20118;-83
2022/01/27 05:20:10;;;;;;;7.82;4.03;;;5.40;99.90;;;;;;5098300;27;20095;-83
2022/01/27 05:22:36;;;;;;;15.43;6.47;;;5.40;99.90;;;;;;5098333;27;20437;-83
2022/01/27 05:25:02;;;;;;;14.45;7.75;;;5.50;99.90;;;;;;5098483;27;20130;-83
2022/01/27 05:27:28;;;;;;;15.77;7.68;;;5.50;99.90;;;;;;5121442;27;20039;-83
2022/01/27 05:29:53;;;;;;;17.17;7.78;;;5.50;99.90;;;;;;5118851;27;20518;-82
2022/01/27 05:32:19;;;;;;;12.73;6.65;;;5.60;99.90;;;;;;5118639;27;20035;-83
2022/01/27 05:34:46;;;;;;;14.43;5.57;;;5.60;99.90;;;;;;5118795;27;20034;-83
2022/01/27 05:37:11;;;;;;;16.23;7.65;;;5.60;99.90;;;;;;5118370;27;20407;-84
2022/01/27 05:39:37;;;;;;;15.93;6.93;;;5.60;99.90;;;;;;5118475;27;20045;-83
2022/01/27 05:42:03;;;;;;;20.10;10.52;;;5.60;99.90;;;;;;5106906;27;20035;-82
2022/01/27 05:44:31;;;;;;;8.02;3.97;;;5.60;99.90;;;;;;5115063;27;20035;-83
2022/01/27 05:46:57;;;;;;;13.43;7.20;;;5.60;99.90;;;;;;5097854;27;20031;-83
2022/01/27 05:49:22;;;;;;;15.88;8.23;;;5.60;99.90;;;;;;5100083;27;20401;-84
2022/01/27 05:51:48;;;;;;;16.25;7.22;;;5.60;99.90;;;;;;5114482;27;20041;-83
2022/01/27 05:54:13;;;;;;;16.30;4.88;;;5.70;99.90;;;;;;5118402;27;20042;-83
2022/01/27 05:56:39;;;;;;;10.93;5.85;;;5.70;99.90;;;;;;5135231;27;20376;-83
2022/01/27 05:59:04;;;;;;;11.50;4.55;;;5.60;99.90;;;;;;5119005;27;20515;-84
2022/01/27 06:01:30;;;;;;;12.38;5.68;;;5.50;99.90;;;;;;5121919;27;20275;-83
2022/01/27 06:03:56;;;;;;;11.98;5.45;;;5.50;99.90;;;;;;5122732;27;20030;-83
2022/01/27 06:06:21;;;;;;;24.42;7.35;;;5.50;99.90;;;;;;5139197;27;20095;-84
2022/01/27 06:08:47;;;;;;;15.77;7.00;;;5.40;99.90;;;;;;5139709;27;20474;-84
2022/01/27 06:11:12;;;;;;;17.80;4.63;;;5.40;99.90;;;;;;5139713;27;20548;-84
2022/01/27 06:13:39;;;;;;;9.88;3.90;;;5.40;99.90;;;;;;5135325;27;20031;-84
2022/01/27 06:16:09;;;;;;;11.75;4.22;;;5.30;99.90;;;;;;5113799;27;20039;-84
2022/01/27 06:18:36;;;;;;;8.75;4.25;;;5.30;99.90;;;;;;5101715;27;20039;-84
2022/01/27 06:21:04;;;;;;;3.00;2.08;;;5.30;99.90;;;;;;5101664;27;20039;-84
2022/01/27 06:23:31;;;;;;;17.65;7.40;;;5.30;99.90;;;;;;5102108;27;20043;-83
2022/01/27 06:25:57;;;;;;;10.60;5.22;;;5.30;99.90;;;;;;5101783;27;20084;-83
2022/01/27 06:28:23;;;;;;;12.10;5.78;;;5.30;99.90;;;;;;5101496;27;20047;-83
2022/01/27 06:30:48;;;;;;;4.60;2.80;;;5.20;99.90;;;;;;5102025;27;20491;-83
2022/01/27 06:33:14;;;;;;;10.10;5.60;;;5.20;99.90;;;;;;5101499;27;20043;-83
2022/01/27 06:35:40;;;;;;;19.65;7.22;;;5.10;99.90;;;;;;5101597;27;20039;-83
2022/01/27 06:38:06;;;;;;;5.18;3.40;;;5.20;99.90;;;;;;5113479;27;20030;-83
2022/01/27 06:40:32;;;;;;;14.80;5.43;;;5.20;99.90;;;;;;5117927;27;20044;-83
2022/01/27 06:42:57;;;;;;;12.38;5.93;;;5.20;99.90;;;;;;5139074;27;20035;-83
2022/01/27 06:45:23;;;;;;;10.70;5.75;;;5.20;99.90;;;;;;5122029;27;20037;-84
2022/01/27 06:47:49;;;;;;;11.88;4.28;;;5.20;99.90;;;;;;5121736;27;20039;-83
2022/01/27 06:50:14;;;;;;;12.55;4.78;;;5.20;99.90;;;;;;5121833;27;20046;-83
2022/01/27 06:52:41;;;;;;;9.50;4.57;;;5.20;99.90;;;;;;5121668;27;20045;-84
2022/01/27 06:55:08;;;;;;;14.75;5.25;;;5.20;99.90;;;;;;5139061;27;20074;-84
2022/01/27 06:57:34;;;;;;;7.75;3.67;;;5.20;99.90;;;;;;5121586;27;20027;-84
2022/01/27 07:00:00;;;;;;;10.55;3.17;;;5.20;99.90;;;;;;5138740;27;20050;-83
2022/01/27 07:02:26;;;;;;;16.73;6.25;;;5.20;99.90;;;;;;5134284;27;20776;-84
2022/01/27 07:04:52;;;;;;;12.68;7.55;;;5.20;99.90;;;;;;5105284;27;20067;-83
2022/01/27 07:07:17;;;;;;;15.02;7.10;;;5.30;99.90;;;;;;5099979;27;20042;-85
2022/01/27 07:09:43;;;;;;;8.20;4.38;;;5.30;99.90;;;;;;5100997;27;20399;-84
2022/01/27 07:12:09;;;;;;;16.30;4.55;;;5.30;99.90;;;;;;5100820;27;20042;-84
2022/01/27 07:14:34;;;;;;;11.93;4.75;;;5.30;99.90;;;;;;5100668;27;20143;-85
2022/01/27 07:17:01;;;;;;;9.85;5.28;;;5.30;99.90;;;;;;5117240;27;20050;-85
2022/01/27 07:19:31;;;;;;;5.47;2.47;;;5.40;99.90;;;;;;5100621;27;20046;-85
2022/01/27 07:21:57;;;;;;;8.90;4.38;;;5.70;99.90;;;;;;5117588;27;20069;-85
2022/01/27 07:25:14;;;;;;;7.00;3.50;;;5.40;99.90;;;;;;5103563;27;20437;-85
2022/01/27 07:27:40;;;;;;;;;;;5.40;99.90;;;;;;5107445;27;20042;-86
2022/01/27 07:30:06;;;;;;;12.10;6.55;;;5.40;99.90;;;;;;5133689;27;19922;-86
2022/01/27 07:32:31;;;;;;;9.18;4.63;;;5.50;99.90;;;;;;5100628;27;20039;-86
2022/01/27 07:34:57;;;;;;;7.75;2.88;;;5.50;99.90;;;;;;5108887;27;20047;-85
2022/01/27 07:37:23;;;;;;;10.65;3.85;;;6.00;99.90;;;;;;5117312;27;20043;-86
2022/01/27 07:39:48;;;;;;;5.85;2.20;;;5.50;99.90;;;;;;5100275;27;20031;-86
2022/01/27 07:42:14;;;;;;;22.38;3.60;;;5.80;99.90;;;;;;5100470;27;20445;-86
2022/01/27 07:44:39;;;;;;;10.52;3.47;;;5.60;99.90;;;;;;5117150;27;20027;-87
2022/01/27 07:47:05;;;;;;;10.32;3.90;;;5.90;99.90;;;;;;5104371;27;20046;-86
2022/01/27 07:49:30;;;;;;;6.93;2.22;;;5.80;99.90;;;;;;5116107;27;20026;-86
2022/01/27 07:51:56;;;;;;;6.25;2.72;;;5.80;99.90;;;;;;5121111;27;20088;-86
2022/01/27 07:54:22;;;;;;;9.60;4.10;;;6.40;99.90;;;;;;5112817;27;20100;-86
2022/01/27 07:56:47;;;;;;;10.80;4.80;;;6.00;99.90;;;;;;5099217;27;20031;-86
2022/01/27 07:59:13;;;;;;;3.72;2.22;;;6.10;99.90;;;;;;5099720;27;20031;-88
2022/01/27 08:01:39;;;;;;;14.73;3.38;;;6.10;99.90;;;;;;5099541;27;20031;-86
2022/01/27 08:04:04;;;;;;;9.45;4.65;;;6.20;99.90;;;;;;5099434;27;20134;-86
2022/01/27 08:06:42;;;;;;;8.98;2.63;;;6.20;99.90;;;;;;5113825;27;20038;-86
2022/01/27 08:09:08;;;;;;;7.30;3.33;;;6.30;99.90;;;;;;5113257;28;20127;-86
2022/01/27 08:11:33;;;;;;;11.30;3.67;;;6.40;99.90;;;;;;5104417;27;20062;-86
2022/01/27 08:13:59;;;;;;;7.25;3.55;;;6.40;99.90;;;;;;5115914;27;20046;-86
2022/01/27 08:16:24;;;;;;;14.65;3.75;;;6.90;99.90;;;;;;5137125;27;20038;-87
2022/01/27 08:18:50;;;;;;;26.35;4.13;;;6.40;99.90;;;;;;5137089;27;20125;-86
2022/01/27 08:21:16;;;;;;;10.98;4.60;;;6.40;99.90;;;;;;5119820;27;20042;-90
2022/01/27 08:23:43;;;;;;;5.10;1.92;;;6.50;99.90;;;;;;5119276;27;20038;-90
2022/01/27 08:26:12;;;;;;;4.40;2.38;;;6.60;99.90;;;;;;5136434;27;20035;-89
2022/01/27 08:31:05;;;;;;;9.18;3.83;;;6.50;99.90;;;;;;5117200;27;20051;-92
2022/01/27 08:33:32;;;;;;;18.13;4.28;;;6.50;99.90;;;;;;5099786;27;20042;-91
2022/01/27 08:35:58;;;;;;;17.98;4.80;;;6.60;99.90;;;;;;5099892;27;20073;-89
2022/01/27 08:38:26;;;;;;;11.18;3.78;;;6.50;99.90;;;;;;5115728;27;20038;-87
2022/01/27 08:40:51;;;;;;;6.07;2.75;;;6.50;99.90;;;;;;5119486;27;20040;-89
2022/01/27 08:43:17;;;;;;;11.70;3.20;;;6.60;99.90;;;;;;5119409;27;20041;-89
2022/01/27 08:45:44;;;;;;;12.50;4.28;;;6.60;99.90;;;;;;5119548;27;20034;-88
2022/01/27 08:48:13;;;;;;;8.43;3.90;;;7.30;99.90;;;;;;5100346;27;20031;-89
2022/01/27 08:50:38;;;;;;;14.60;3.65;;;6.60;99.90;;;;;;5099075;27;20466;-89
2022/01/27 08:53:04;;;;;;;6.13;2.55;;;6.60;99.90;;;;;;5108888;27;20069;-91
2022/01/27 08:55:30;;;;;;;10.57;3.15;;;6.60;99.90;;;;;;5119625;27;20124;-91
2022/01/27 08:57:55;;;;;;;3.67;1.55;;;6.70;99.90;;;;;;5099051;27;20038;-90
2022/01/27 09:00:21;;;;;;;5.88;2.63;;;6.70;99.90;;;;;;5098941;27;20065;-93
2022/01/27 09:02:47;;;;;;;8.55;4.68;;;6.70;99.90;;;;;;5116277;27;20035;-90
2022/01/27 09:05:13;;;;;;;9.98;3.65;;;6.80;99.90;;;;;;5098661;27;20114;-90
2022/01/27 09:07:39;;;;;;;5.57;2.45;;;7.30;99.90;;;;;;5098257;27;20039;-87
2022/01/27 09:10:33;;;;;;;12.30;4.43;;;6.80;99.90;;;;;;5098485;27;20050;-87
2022/01/27 09:13:02;;;;;;;11.30;2.90;;;6.90;99.90;;;;;;5115444;27;20453;-87
2022/01/27 09:15:29;;;;;;;10.85;3.33;;;6.90;99.90;;;;;;5098553;27;20103;-86
2022/01/27 09:17:56;;;;;;;6.57;2.88;;;7.00;99.90;;;;;;5098194;27;20083;-87
2022/01/27 09:20:22;;;;;;;16.15;4.47;;;7.00;99.90;;;;;;5098740;27;20043;-86
2022/01/27 09:22:48;;;;;;;10.73;4.20;;;7.00;99.90;;;;;;5119516;27;20027;-87
2022/01/27 09:25:19;;;;;;;10.18;2.63;;;7.10;99.90;;;;;;5098378;27;20038;-84
2022/01/27 09:27:46;;;;;;;14.90;3.33;;;7.10;99.90;;;;;;5098014;27;20043;-84
2022/01/27 09:30:15;;;;;;;7.63;2.38;;;7.10;99.90;;;;;;5098210;27;20039;-87
2022/01/27 09:32:41;;;;;;;24.83;2.78;;;7.10;99.90;;;;;;5104508;27;20031;-85
2022/01/27 09:35:06;;;;;;;19.20;3.55;;;7.10;99.90;;;;;;5118664;27;20398;-86
2022/01/27 09:37:32;;;;;;;9.60;2.33;;;7.10;99.90;;;;;;5135348;27;20038;-86
2022/01/27 09:39:58;;;;;;;2.05;1.35;;;7.10;99.90;;;;;;5118416;27;20043;-86
2022/01/27 09:42:26;;;;;;;1.58;0.93;;;7.20;99.90;;;;;;5135884;27;20073;-85
2022/01/27 09:44:53;;;;;;;11.40;3.97;;;7.30;99.90;;;;;;5118861;27;20033;-88
2022/01/27 09:47:20;;;;;;;1.55;1.05;;;7.20;99.90;;;;;;5110387;27;20076;-86
2022/01/27 09:50:35;;;;;;;6.90;2.85;;;7.30;99.90;;;;;;5117812;27;20042;-86
2022/01/27 09:52:34;;;;;;;7.93;2.60;;;7.40;99.90;;;;;;5127554;27;20075;-86
2022/01/27 09:54:59;;;;;;;5.70;1.58;;;7.30;99.90;;;;;;5118945;27;20034;-86
2022/01/27 09:57:25;;;;;;;5.38;2.17;;;7.30;99.90;;;;;;5135212;27;20042;-86
2022/01/27 09:59:50;;;;;;;7.47;2.67;;;7.30;99.90;;;;;;5118939;27;20077;-86
2022/01/27 10:02:18;;;;;;;4.10;1.92;;;7.60;99.90;;;;;;5118534;27;20435;-84
2022/01/27 10:04:57;;;;;;;7.47;2.67;;;7.40;99.90;;;;;;5111811;28;20042;-86
2022/01/27 10:07:28;;;;;;;7.05;2.92;;;7.40;99.90;;;;;;5097457;28;20147;-85
2022/01/27 10:10:01;;;;;;;21.02;3.58;;;7.50;99.90;;;;;;5106491;27;20034;-80
2022/01/27 10:12:39;;;;;;;8.15;1.98;;;7.50;99.90;;;;;;5113862;27;20051;-84
2022/01/27 10:15:18;;;;;;;1.08;0.85;;;7.50;99.90;;;;;;5118292;27;20061;-85
2022/01/27 10:18:09;;;;;;;6.35;2.05;;;7.60;99.90;;;;;;5117897;27;20396;-85
2022/01/27 10:20:36;;;;;;;4.40;1.88;;;7.60;99.90;;;;;;5118245;27;20039;-84
2022/01/27 10:23:11;;;;;;;2.35;1.63;;;7.80;99.90;;;;;;5118389;27;20042;-85
2022/01/27 10:25:47;;;;;;;10.90;5.30;;;7.60;99.90;;;;;;5116401;27;20042;-84
2022/01/27 10:28:56;;;;;;;5.15;1.92;;;8.20;99.90;;;;;;5097394;28;20039;-84
2022/01/27 10:31:24;;;;;;;8.40;1.58;;;7.60;99.90;;;;;;5114924;28;20126;-86
2022/01/27 10:34:01;;;;;;;5.55;1.73;;;7.70;99.90;;;;;;5101868;28;20092;-88
2022/01/27 10:36:32;;;;;;;5.60;2.05;;;7.60;99.90;;;;;;5097225;28;20889;-87
2022/01/27 10:39:10;;;;;;;7.82;2.58;;;7.70;99.90;;;;;;5097807;28;20035;-87
2022/01/27 10:42:00;;;;;;;5.18;2.08;;;7.70;99.90;;;;;;5097727;28;20642;-87
2022/01/27 10:44:46;;;;;;;4.00;1.88;;;7.80;99.90;;;;;;5097723;28;20035;-86
2022/01/27 10:47:26;;;;;;;6.75;2.28;;;7.80;99.90;;;;;;5099940;27;20035;-85
2022/01/27 10:50:03;;;;;;;10.00;2.47;;;7.90;99.90;;;;;;5101334;27;20039;-86
2022/01/27 10:52:37;;;;;;;4.82;1.88;;;8.00;99.90;;;;;;5101241;27;20046;-86
2022/01/27 10:55:12;;;;;;;6.22;1.98;;;7.90;99.90;;;;;;5101527;27;20499;-85
2022/01/27 10:57:38;;;;;;;6.55;2.17;;;8.00;99.90;;;;;;5104888;27;20031;-84
2022/01/27 11:00:13;;;;;;;3.88;1.80;;;8.00;99.90;;;;;;5105064;27;20382;-84
2022/01/27 11:03:01;;;;;;;5.65;3.22;;;8.00;99.90;;;;;;5101232;27;20035;-83
2022/01/27 11:05:42;;;;;;;3.45;1.95;;;8.00;99.90;;;;;;5117982;27;20031;-83
2022/01/27 11:08:08;;;;;;;10.70;2.70;;;8.00;99.90;;;;;;5117415;27;20031;-83
2022/01/27 11:10:35;;;;;;;5.07;1.70;;;8.00;99.90;;;;;;5101355;27;20038;-83
2022/01/27 11:13:00;;;;;;;3.78;1.83;;;8.00;99.90;;;;;;5117825;27;20088;-82
2022/01/27 11:15:26;;;;;;;10.48;3.65;;;8.10;99.90;;;;;;5117751;27;20039;-83
2022/01/27 11:17:54;;;;;;;21.20;2.35;;;8.20;99.90;;;;;;5117462;27;20035;-84
2022/01/27 11:20:28;;;;;;;2.42;1.48;;;8.20;99.90;;;;;;5121432;27;20043;-83
2022/01/27 11:27:54;;;;;;;13.02;2.10;;;8.40;99.90;;;;;;5137930;27;20043;-86
2022/01/27 11:30:45;;;;;;;6.65;2.40;;;8.50;99.90;;;;;;5138161;27;20411;-86
2022/01/27 11:33:17;;;;;;;6.13;1.73;;;8.60;99.90;;;;;;5121021;27;20042;-86
2022/01/27 11:35:43;;;;;;;3.50;1.60;;;8.60;99.90;;;;;;5120986;27;20031;-86
2022/01/27 11:38:10;;;;;;;7.95;2.90;;;8.70;99.90;;;;;;5120316;27;20061;-87
2022/01/27 11:40:45;;;;;;;5.93;2.33;;;8.70;99.90;;;;;;5121026;27;20037;-86
2022/01/27 11:43:12;;;;;;;6.60;1.83;;;8.70;99.90;;;;;;5130351;27;20114;-86
2022/01/27 11:45:54;;;;;;;7.43;1.80;;;8.70;99.90;;;;;;5120162;27;20031;-86
2022/01/27 11:48:24;;;;;;;8.65;2.13;;;8.80;99.90;;;;;;5137324;27;20414;-86
2022/01/27 11:51:03;;;;;;;3.92;1.65;;;8.70;99.90;;;;;;5098493;28;20035;-84
2022/01/27 11:53:33;;;;;;;7.45;2.92;;;8.80;99.90;;;;;;5092244;27;20039;-84
2022/01/27 11:56:23;;;;;;;9.82;1.38;;;8.80;99.90;;;;;;5100586;27;20113;-84
2022/01/27 11:58:51;;;;;;;6.03;1.25;;;8.80;99.90;;;;;;5085592;27;20051;-84
2022/01/27 12:01:22;;;;;;;7.72;2.03;;;8.80;99.90;;;;;;5099998;27;20031;-83
2022/01/27 12:04:04;;;;;;;3.97;1.38;;;8.80;99.90;;;;;;5116938;27;20035;-84
2022/01/27 12:06:32;;;;;;;10.10;2.58;;;8.80;99.90;;;;;;5099511;27;20078;-84
2022/01/27 12:09:26;;;;;;;6.30;2.75;;;8.80;99.90;;;;;;5105329;27;20088;-83
2022/01/27 12:12:00;;;;;;;8.60;1.73;;;8.80;99.90;;;;;;5137415;27;20107;-84
2022/01/27 12:14:32;;;;;;;18.77;1.80;;;8.80;99.90;;;;;;5120253;27;20038;-84
2022/01/27 12:17:07;;;;;;;18.33;2.45;;;8.90;99.90;;;;;;5136958;27;20074;-84
2022/01/27 12:19:53;;;;;;;21.98;2.67;;;8.90;99.90;;;;;;5117517;27;20042;-84
2022/01/27 12:22:25;;;;;;;4.65;1.73;;;8.90;99.90;;;;;;5116750;27;20492;-84
2022/01/27 12:25:05;;;;;;;8.52;2.05;;;8.90;99.90;;;;;;5083031;27;20385;-84
2022/01/27 12:27:31;;;;;;;4.90;1.52;;;8.90;99.90;;;;;;5099488;27;20031;-84
2022/01/27 12:29:58;;;;;;;4.97;1.50;;;9.20;99.90;;;;;;5116451;27;20047;-84
2022/01/27 12:32:29;;;;;;;8.35;2.03;;;8.90;99.90;;;;;;5112061;27;20087;-84
2022/01/27 12:35:00;;;;;;;6.25;2.05;;;8.90;99.90;;;;;;5134638;27;20053;-84
2022/01/27 12:37:37;;;;;;;4.60;1.75;;;8.90;99.90;;;;;;5119676;27;20089;-84
2022/01/27 12:40:06;;;;;;;4.50;1.80;;;8.90;99.90;;;;;;5119613;27;20381;-84
2022/01/27 12:42:35;;;;;;;4.38;1.42;;;8.80;99.90;;;;;;5119692;27;20440;-84
2022/01/27 12:45:07;;;;;;;5.38;1.40;;;8.80;99.90;;;;;;5119371;27;20493;-84
2022/01/27 12:47:36;;;;;;;5.18;1.77;;;8.80;99.90;;;;;;5116731;27;20034;-83
2022/01/27 12:50:10;;;;;;;6.60;1.60;;;8.80;99.90;;;;;;5115934;27;20103;-84
2022/01/27 12:52:40;;;;;;;1.70;0.93;;;8.80;99.90;;;;;;5099321;27;20082;-84
2022/01/27 12:55:17;;;;;;;5.88;1.55;;;8.80;99.90;;;;;;5114571;27;20070;-84
2022/01/27 12:57:43;;;;;;;8.30;2.10;;;8.80;99.90;;;;;;5099193;27;20373;-84
2022/01/27 13:00:13;;;;;;;9.45;1.63;;;8.80;99.90;;;;;;5098742;27;20208;-84
2022/01/27 13:02:39;;;;;;;5.57;2.00;;;8.80;99.90;;;;;;5098713;27;20061;-85
2022/01/27 13:05:07;;;;;;;11.55;1.80;;;8.80;99.90;;;;;;5099043;27;20104;-83
2022/01/27 13:07:38;;;;;;;5.75;1.70;;;8.80;99.90;;;;;;5098347;27;20078;-84
2022/01/27 13:10:08;;;;;;;10.10;2.50;;;8.80;99.90;;;;;;5098307;27;20092;-84
2022/01/27 13:12:57;;;;;;;10.45;2.28;;;8.80;99.90;;;;;;5099141;27;20103;-84
2022/01/27 13:15:23;;;;;;;20.15;2.22;;;8.70;99.90;;;;;;5114978;27;20111;-84
2022/01/27 13:17:55;;;;;;;5.95;1.73;;;9.00;99.90;;;;;;5098798;27;20121;-83
2022/01/27 13:20:37;;;;;;;8.50;2.05;;;8.80;99.90;;;;;;5114458;27;20092;-84
2022/01/27 13:25:55;;;;;;;10.00;1.88;;;8.70;99.90;;;;;;5136264;27;20511;-84
2022/01/27 13:28:27;;;;;;;16.17;2.42;;;8.60;99.90;;;;;;5118357;27;20391;-84
2022/01/27 13:30:58;;;;;;;7.00;2.17;;;8.60;99.90;;;;;;5118919;27;20034;-84
2022/01/27 13:33:25;;;;;;;10.45;1.63;;;8.60;99.90;;;;;;5118661;27;20118;-84
2022/01/27 13:35:52;;;;;;;6.68;1.65;;;8.60;99.90;;;;;;5118740;27;20031;-83
2022/01/27 13:38:21;;;;;;;6.50;1.40;;;8.60;99.90;;;;;;5135318;27;20066;-84
2022/01/27 13:44:27;;;;;;;8.38;2.15;;;8.60;99.90;;;;;;5154661;27;20532;-84
2022/01/27 13:47:03;;;;;;;9.05;1.27;;;8.70;99.90;;;;;;5097809;27;20130;-84
2022/01/27 13:49:36;;;;;;;2.85;1.52;;;8.70;99.90;;;;;;5098001;28;20043;-84
2022/01/27 13:52:15;;;;;;;3.03;1.85;;;8.70;99.90;;;;;;5098278;27;20083;-84
2022/01/27 13:54:44;;;;;;;10.00;1.58;;;8.70;99.90;;;;;;5098184;28;20035;-84